sensor_id;sensor_type;location;lat;lon;timestamp;temperature;humidity
51567;DHT22;37657;53.182;5.638;2022-08-21T00:00:43;16.00;99.90
51567;DHT22;37657;53.182;5.638;2022-08-21T00:03:09;15.90;99.90
51567;DHT22;37657;53.182;5.638;2022-08-21T00:05:36;15.80;99.90
51567;DHT22;37657;53.182;5.638;2022-08-21T00:08:02;15.70;99.90
51567;DHT22;37657;53.182;5.638;2022-08-21T00:10:28;15.70;99.90
51567;DHT22;37657;53.182;5.638;2022-08-21T00:12:54;15.60;99.90
51567;DHT22;37657;53.182;5.638;2022-08-21T00:15:29;15.50;99.90
51567;DHT22;37657;53.182;5.638;2022-08-21T00:17:55;15.50;99.90
51567;DHT22;37657;53.182;5.638;2022-08-21T00:20:21;15.50;99.90
51567;DHT22;37657;53.182;5.638;2022-08-21T00:22:47;15.50;99.90
51567;DHT22;37657;53.182;5.638;2022-08-21T00:25:13;15.50;99.90
51567;DHT22;37657;53.182;5.638;2022-08-21T00:27:39;15.60;99.90
51567;DHT22;37657;53.182;5.638;2022-08-21T00:30:07;15.50;99.90
51567;DHT22;37657;53.182;5.638;2022-08-21T00:32:33;15.60;99.90
51567;DHT22;37657;53.182;5.638;2022-08-21T00:34:58;15.60;99.90
51567;DHT22;37657;53.182;5.638;2022-08-21T00:37:24;15.60;99.90
51567;DHT22;37657;53.182;5.638;2022-08-21T00:39:49;15.60;99.90
51567;DHT22;37657;53.182;5.638;2022-08-21T00:42:15;15.60;99.90
51567;DHT22;37657;53.182;5.638;2022-08-21T00:44:41;15.60;99.90
51567;DHT22;37657;53.182;5.638;2022-08-21T00:47:08;15.60;99.90
51567;DHT22;37657;53.182;5.638;2022-08-21T00:49:33;15.70;99.90
51567;DHT22;37657;53.182;5.638;2022-08-21T00:51:59;15.60;99.90
51567;DHT22;37657;53.182;5.638;2022-08-21T00:54:26;15.70;99.90
51567;DHT22;37657;53.182;5.638;2022-08-21T00:56:59;15.70;99.90
51567;DHT22;37657;53.182;5.638;2022-08-21T00:59:25;15.70;99.90
51567;DHT22;37657;53.182;5.638;2022-08-21T01:01:52;15.70;99.90
51567;DHT22;37657;53.182;5.638;2022-08-21T01:04:18;15.70;99.90
51567;DHT22;37657;53.182;5.638;2022-08-21T01:06:44;15.70;99.90
51567;DHT22;37657;53.182;5.638;2022-08-21T01:09:10;15.70;99.90
51567;DHT22;37657;53.182;5.638;2022-08-21T01:11:35;15.70;99.90
51567;DHT22;37657;53.182;5.638;2022-08-21T01:14:01;15.70;99.90
51567;DHT22;37657;53.182;5.638;2022-08-21T01:16:27;15.60;99.90
51567;DHT22;37657;53.182;5.638;2022-08-21T01:18:53;15.60;99.90
51567;DHT22;37657;53.182;5.638;2022-08-21T01:21:20;15.50;99.90
51567;DHT22;37657;53.182;5.638;2022-08-21T01:23:47;15.40;99.90
51567;DHT22;37657;53.182;5.638;2022-08-21T01:26:14;15.40;99.90
51567;DHT22;37657;53.182;5.638;2022-08-21T01:28:43;15.40;99.90
51567;DHT22;37657;53.182;5.638;2022-08-21T01:31:09;15.40;99.90
51567;DHT22;37657;53.182;5.638;2022-08-21T01:33:35;15.40;99.90
51567;DHT22;37657;53.182;5.638;2022-08-21T01:36:01;15.30;99.90
51567;DHT22;37657;53.182;5.638;2022-08-21T01:38:27;15.40;99.90
51567;DHT22;37657;53.182;5.638;2022-08-21T01:40:52;15.30;99.90
51567;DHT22;37657;53.182;5.638;2022-08-21T01:43:18;15.30;99.90
51567;DHT22;37657;53.182;5.638;2022-08-21T01:45:43;15.30;99.90
51567;DHT22;37657;53.182;5.638;2022-08-21T01:48:09;15.30;99.90
51567;DHT22;37657;53.182;5.638;2022-08-21T01:50:34;15.30;99.90
51567;DHT22;37657;53.182;5.638;2022-08-21T01:53:00;15.30;99.90
51567;DHT22;37657;53.182;5.638;2022-08-21T01:55:25;15.20;99.90
51567;DHT22;37657;53.182;5.638;2022-08-21T01:57:51;15.20;99.90
51567;DHT22;37657;53.182;5.638;2022-08-21T02:00:18;15.10;99.90
51567;DHT22;37657;53.182;5.638;2022-08-21T02:02:44;15.10;99.90
51567;DHT22;37657;53.182;5.638;2022-08-21T02:05:11;15.10;99.90
51567;DHT22;37657;53.182;5.638;2022-08-21T02:07:41;15.10;99.90
51567;DHT22;37657;53.182;5.638;2022-08-21T02:10:07;15.10;99.90
51567;DHT22;37657;53.182;5.638;2022-08-21T02:12:33;15.20;99.90
51567;DHT22;37657;53.182;5.638;2022-08-21T02:14:58;15.10;99.90
51567;DHT22;37657;53.182;5.638;2022-08-21T02:17:24;15.10;99.90
51567;DHT22;37657;53.182;5.638;2022-08-21T02:19:49;15.20;99.90
51567;DHT22;37657;53.182;5.638;2022-08-21T02:22:15;15.20;99.90
51567;DHT22;37657;53.182;5.638;2022-08-21T02:24:40;15.20;99.90
51567;DHT22;37657;53.182;5.638;2022-08-21T02:27:06;15.20;99.90
51567;DHT22;37657;53.182;5.638;2022-08-21T02:29:31;15.20;99.90
51567;DHT22;37657;53.182;5.638;2022-08-21T02:31:57;15.10;99.90
51567;DHT22;37657;53.182;5.638;2022-08-21T02:34:22;15.10;99.90
51567;DHT22;37657;53.182;5.638;2022-08-21T02:36:48;15.00;99.90
51567;DHT22;37657;53.182;5.638;2022-08-21T02:39:13;15.00;99.90
51567;DHT22;37657;53.182;5.638;2022-08-21T02:41:39;14.90;99.90
51567;DHT22;37657;53.182;5.638;2022-08-21T02:44:04;14.90;99.90
51567;DHT22;37657;53.182;5.638;2022-08-21T02:46:30;14.90;99.90
51567;DHT22;37657;53.182;5.638;2022-08-21T02:48:55;14.90;99.90
51567;DHT22;37657;53.182;5.638;2022-08-21T02:51:21;14.90;99.90
51567;DHT22;37657;53.182;5.638;2022-08-21T02:53:48;14.80;99.90
51567;DHT22;37657;53.182;5.638;2022-08-21T02:56:15;14.80;99.90
51567;DHT22;37657;53.182;5.638;2022-08-21T02:58:43;14.80;99.90
51567;DHT22;37657;53.182;5.638;2022-08-21T03:01:09;14.90;99.90
51567;DHT22;37657;53.182;5.638;2022-08-21T03:03:36;14.80;99.90
51567;DHT22;37657;53.182;5.638;2022-08-21T03:06:02;14.80;99.90
51567;DHT22;37657;53.182;5.638;2022-08-21T03:08:27;14.80;99.90
51567;DHT22;37657;53.182;5.638;2022-08-21T03:10:53;14.80;99.90
51567;DHT22;37657;53.182;5.638;2022-08-21T03:13:19;14.70;99.90
51567;DHT22;37657;53.182;5.638;2022-08-21T03:15:46;14.70;99.90
51567;DHT22;37657;53.182;5.638;2022-08-21T03:18:11;14.70;99.90
51567;DHT22;37657;53.182;5.638;2022-08-21T03:20:38;14.80;99.90
51567;DHT22;37657;53.182;5.638;2022-08-21T03:23:03;14.80;99.90
51567;DHT22;37657;53.182;5.638;2022-08-21T03:25:29;14.70;99.90
51567;DHT22;37657;53.182;5.638;2022-08-21T03:27:57;14.70;99.90
51567;DHT22;37657;53.182;5.638;2022-08-21T03:30:23;14.60;99.90
51567;DHT22;37657;53.182;5.638;2022-08-21T03:32:49;14.70;99.90
51567;DHT22;37657;53.182;5.638;2022-08-21T03:35:16;14.60;99.90
51567;DHT22;37657;53.182;5.638;2022-08-21T03:37:41;14.60;99.90
51567;DHT22;37657;53.182;5.638;2022-08-21T03:40:07;14.60;99.90
51567;DHT22;37657;53.182;5.638;2022-08-21T03:42:33;14.60;99.90
51567;DHT22;37657;53.182;5.638;2022-08-21T03:44:58;14.70;99.90
51567;DHT22;37657;53.182;5.638;2022-08-21T03:47:24;14.60;99.90
51567;DHT22;37657;53.182;5.638;2022-08-21T03:49:50;14.60;99.90
51567;DHT22;37657;53.182;5.638;2022-08-21T03:52:15;14.60;99.90
51567;DHT22;37657;53.182;5.638;2022-08-21T03:54:42;14.60;99.90
51567;DHT22;37657;53.182;5.638;2022-08-21T03:57:08;14.60;99.90
51567;DHT22;37657;53.182;5.638;2022-08-21T03:59:34;14.60;99.90
51567;DHT22;37657;53.182;5.638;2022-08-21T04:02:00;14.70;99.90
51567;DHT22;37657;53.182;5.638;2022-08-21T04:04:27;14.70;99.90
51567;DHT22;37657;53.182;5.638;2022-08-21T04:06:53;14.70;99.90
51567;DHT22;37657;53.182;5.638;2022-08-21T04:09:19;14.80;99.90
51567;DHT22;37657;53.182;5.638;2022-08-21T04:11:45;14.70;99.90
51567;DHT22;37657;53.182;5.638;2022-08-21T04:14:12;14.80;99.90
51567;DHT22;37657;53.182;5.638;2022-08-21T04:16:39;14.70;99.90
51567;DHT22;37657;53.182;5.638;2022-08-21T04:19:04;14.70;99.90
51567;DHT22;37657;53.182;5.638;2022-08-21T04:21:30;14.70;99.90
51567;DHT22;37657;53.182;5.638;2022-08-21T04:23:56;14.60;99.90
51567;DHT22;37657;53.182;5.638;2022-08-21T04:26:21;14.60;99.90
51567;DHT22;37657;53.182;5.638;2022-08-21T04:28:47;14.60;99.90
51567;DHT22;37657;53.182;5.638;2022-08-21T04:31:12;14.60;99.90
51567;DHT22;37657;53.182;5.638;2022-08-21T04:33:38;14.60;99.90
51567;DHT22;37657;53.182;5.638;2022-08-21T04:36:03;14.60;99.90
51567;DHT22;37657;53.182;5.638;2022-08-21T04:38:29;14.60;99.90
51567;DHT22;37657;53.182;5.638;2022-08-21T04:40:56;14.60;99.90
51567;DHT22;37657;53.182;5.638;2022-08-21T04:43:22;14.60;99.90
51567;DHT22;37657;53.182;5.638;2022-08-21T04:45:49;14.70;99.90
51567;DHT22;37657;53.182;5.638;2022-08-21T04:48:15;14.60;99.90
51567;DHT22;37657;53.182;5.638;2022-08-21T04:53:08;14.70;99.90
51567;DHT22;37657;53.182;5.638;2022-08-21T04:55:34;14.80;99.90
51567;DHT22;37657;53.182;5.638;2022-08-21T04:58:00;14.80;99.90
51567;DHT22;37657;53.182;5.638;2022-08-21T05:00:25;14.80;99.90
51567;DHT22;37657;53.182;5.638;2022-08-21T05:02:51;14.90;99.90
51567;DHT22;37657;53.182;5.638;2022-08-21T05:05:19;15.00;99.90
51567;DHT22;37657;53.182;5.638;2022-08-21T05:07:45;15.00;99.90
51567;DHT22;37657;53.182;5.638;2022-08-21T05:10:11;15.20;99.90
51567;DHT22;37657;53.182;5.638;2022-08-21T05:12:37;15.30;99.90
51567;DHT22;37657;53.182;5.638;2022-08-21T05:15:03;15.50;99.90
51567;DHT22;37657;53.182;5.638;2022-08-21T05:17:28;15.50;99.90
51567;DHT22;37657;53.182;5.638;2022-08-21T05:19:54;15.80;99.90
51567;DHT22;37657;53.182;5.638;2022-08-21T05:22:21;15.90;99.90
51567;DHT22;37657;53.182;5.638;2022-08-21T05:24:47;15.90;99.90
51567;DHT22;37657;53.182;5.638;2022-08-21T05:27:12;16.10;99.90
51567;DHT22;37657;53.182;5.638;2022-08-21T05:29:38;16.20;99.90
51567;DHT22;37657;53.182;5.638;2022-08-21T05:32:08;16.40;99.90
51567;DHT22;37657;53.182;5.638;2022-08-21T05:34:34;16.50;99.90
51567;DHT22;37657;53.182;5.638;2022-08-21T05:36:59;16.70;99.90
51567;DHT22;37657;53.182;5.638;2022-08-21T05:39:24;16.90;99.90
51567;DHT22;37657;53.182;5.638;2022-08-21T05:41:50;17.00;99.90
51567;DHT22;37657;53.182;5.638;2022-08-21T05:44:15;17.20;99.90
51567;DHT22;37657;53.182;5.638;2022-08-21T05:46:41;17.30;99.90
51567;DHT22;37657;53.182;5.638;2022-08-21T05:49:06;17.50;99.90
51567;DHT22;37657;53.182;5.638;2022-08-21T05:51:32;17.60;99.90
51567;DHT22;37657;53.182;5.638;2022-08-21T05:53:57;17.70;99.90
51567;DHT22;37657;53.182;5.638;2022-08-21T05:56:23;17.80;99.90
51567;DHT22;37657;53.182;5.638;2022-08-21T05:58:48;17.90;99.90
51567;DHT22;37657;53.182;5.638;2022-08-21T06:01:14;18.00;99.90
51567;DHT22;37657;53.182;5.638;2022-08-21T06:03:40;18.10;99.90
51567;DHT22;37657;53.182;5.638;2022-08-21T06:06:05;18.20;99.90
51567;DHT22;37657;53.182;5.638;2022-08-21T06:08:31;18.20;99.90
51567;DHT22;37657;53.182;5.638;2022-08-21T06:10:58;18.30;99.90
51567;DHT22;37657;53.182;5.638;2022-08-21T06:13:23;18.40;99.90
51567;DHT22;37657;53.182;5.638;2022-08-21T06:15:49;18.40;99.90
51567;DHT22;37657;53.182;5.638;2022-08-21T06:18:25;18.50;99.90
51567;DHT22;37657;53.182;5.638;2022-08-21T06:20:50;18.60;99.90
51567;DHT22;37657;53.182;5.638;2022-08-21T06:23:15;18.70;99.90
51567;DHT22;37657;53.182;5.638;2022-08-21T06:25:41;18.80;99.90
51567;DHT22;37657;53.182;5.638;2022-08-21T06:28:09;18.90;99.90
51567;DHT22;37657;53.182;5.638;2022-08-21T06:30:35;19.00;99.90
51567;DHT22;37657;53.182;5.638;2022-08-21T06:33:01;19.00;99.90
51567;DHT22;37657;53.182;5.638;2022-08-21T06:35:28;19.10;99.90
51567;DHT22;37657;53.182;5.638;2022-08-21T06:37:54;19.20;99.90
51567;DHT22;37657;53.182;5.638;2022-08-21T06:40:20;19.20;99.90
51567;DHT22;37657;53.182;5.638;2022-08-21T06:42:45;19.30;99.90
51567;DHT22;37657;53.182;5.638;2022-08-21T06:45:11;19.30;99.90
51567;DHT22;37657;53.182;5.638;2022-08-21T06:47:36;19.40;99.90
51567;DHT22;37657;53.182;5.638;2022-08-21T06:50:02;19.40;99.90
51567;DHT22;37657;53.182;5.638;2022-08-21T06:52:28;19.50;99.90
51567;DHT22;37657;53.182;5.638;2022-08-21T06:54:54;19.60;99.90
51567;DHT22;37657;53.182;5.638;2022-08-21T06:57:19;19.60;99.90
51567;DHT22;37657;53.182;5.638;2022-08-21T06:59:45;19.70;99.90
51567;DHT22;37657;53.182;5.638;2022-08-21T07:02:10;19.70;99.90
51567;DHT22;37657;53.182;5.638;2022-08-21T07:04:36;19.80;99.90
51567;DHT22;37657;53.182;5.638;2022-08-21T07:07:01;19.80;99.90
51567;DHT22;37657;53.182;5.638;2022-08-21T07:09:27;19.80;99.90
51567;DHT22;37657;53.182;5.638;2022-08-21T07:11:53;19.90;99.90
51567;DHT22;37657;53.182;5.638;2022-08-21T07:14:20;20.00;99.90
51567;DHT22;37657;53.182;5.638;2022-08-21T07:16:46;20.00;99.90
51567;DHT22;37657;53.182;5.638;2022-08-21T07:19:12;20.00;99.90
51567;DHT22;37657;53.182;5.638;2022-08-21T07:21:37;20.10;99.90
51567;DHT22;37657;53.182;5.638;2022-08-21T07:24:03;20.10;99.90
51567;DHT22;37657;53.182;5.638;2022-08-21T07:26:28;20.20;99.90
51567;DHT22;37657;53.182;5.638;2022-08-21T07:28:54;20.10;99.90
51567;DHT22;37657;53.182;5.638;2022-08-21T07:31:20;20.20;99.90
51567;DHT22;37657;53.182;5.638;2022-08-21T07:33:46;20.30;99.90
51567;DHT22;37657;53.182;5.638;2022-08-21T07:36:12;20.30;99.90
51567;DHT22;37657;53.182;5.638;2022-08-21T07:38:38;20.40;99.90
51567;DHT22;37657;53.182;5.638;2022-08-21T07:41:07;20.40;99.90
51567;DHT22;37657;53.182;5.638;2022-08-21T07:43:36;20.40;99.90
51567;DHT22;37657;53.182;5.638;2022-08-21T07:46:01;20.50;99.90
51567;DHT22;37657;53.182;5.638;2022-08-21T07:48:27;20.50;99.90
51567;DHT22;37657;53.182;5.638;2022-08-21T07:50:52;20.50;99.90
51567;DHT22;37657;53.182;5.638;2022-08-21T07:53:18;20.60;99.90
51567;DHT22;37657;53.182;5.638;2022-08-21T07:55:44;20.60;99.90
51567;DHT22;37657;53.182;5.638;2022-08-21T07:58:09;20.70;99.90
51567;DHT22;37657;53.182;5.638;2022-08-21T08:00:35;20.70;99.90
51567;DHT22;37657;53.182;5.638;2022-08-21T08:03:00;20.70;99.90
51567;DHT22;37657;53.182;5.638;2022-08-21T08:05:27;20.80;99.90
51567;DHT22;37657;53.182;5.638;2022-08-21T08:07:53;20.90;99.90
51567;DHT22;37657;53.182;5.638;2022-08-21T08:10:19;21.00;99.90
51567;DHT22;37657;53.182;5.638;2022-08-21T08:12:44;21.10;99.90
51567;DHT22;37657;53.182;5.638;2022-08-21T08:15:11;21.10;99.90
51567;DHT22;37657;53.182;5.638;2022-08-21T08:17:37;21.30;99.90
51567;DHT22;37657;53.182;5.638;2022-08-21T08:20:06;21.40;99.90
51567;DHT22;37657;53.182;5.638;2022-08-21T08:22:33;21.40;99.90
51567;DHT22;37657;53.182;5.638;2022-08-21T08:24:59;21.40;99.90
51567;DHT22;37657;53.182;5.638;2022-08-21T08:27:25;21.50;99.90
51567;DHT22;37657;53.182;5.638;2022-08-21T08:29:50;21.50;99.90
51567;DHT22;37657;53.182;5.638;2022-08-21T08:32:16;21.60;99.90
51567;DHT22;37657;53.182;5.638;2022-08-21T08:34:43;22.00;99.90
51567;DHT22;37657;53.182;5.638;2022-08-21T08:37:08;21.90;99.90
51567;DHT22;37657;53.182;5.638;2022-08-21T08:39:34;21.90;99.90
51567;DHT22;37657;53.182;5.638;2022-08-21T08:42:05;22.00;99.90
51567;DHT22;37657;53.182;5.638;2022-08-21T08:44:31;22.10;99.90
51567;DHT22;37657;53.182;5.638;2022-08-21T08:46:56;22.20;99.90
51567;DHT22;37657;53.182;5.638;2022-08-21T08:49:24;22.30;99.90
51567;DHT22;37657;53.182;5.638;2022-08-21T08:51:52;22.30;99.90
51567;DHT22;37657;53.182;5.638;2022-08-21T08:54:27;22.40;99.90
51567;DHT22;37657;53.182;5.638;2022-08-21T08:56:58;22.40;99.90
51567;DHT22;37657;53.182;5.638;2022-08-21T08:59:27;22.40;99.90
51567;DHT22;37657;53.182;5.638;2022-08-21T09:01:55;22.40;99.90
51567;DHT22;37657;53.182;5.638;2022-08-21T09:04:23;22.30;99.90
51567;DHT22;37657;53.182;5.638;2022-08-21T09:14:41;22.20;99.90
51567;DHT22;37657;53.182;5.638;2022-08-21T09:17:27;22.10;99.90
51567;DHT22;37657;53.182;5.638;2022-08-21T09:20:17;22.00;99.90
51567;DHT22;37657;53.182;5.638;2022-08-21T09:23:00;22.10;99.90
51567;DHT22;37657;53.182;5.638;2022-08-21T09:25:32;22.30;99.90
51567;DHT22;37657;53.182;5.638;2022-08-21T09:27:58;22.30;99.90
51567;DHT22;37657;53.182;5.638;2022-08-21T09:30:26;22.20;99.90
51567;DHT22;37657;53.182;5.638;2022-08-21T09:32:52;22.10;99.90
51567;DHT22;37657;53.182;5.638;2022-08-21T09:35:19;22.00;99.90
51567;DHT22;37657;53.182;5.638;2022-08-21T09:40:55;21.90;99.90
51567;DHT22;37657;53.182;5.638;2022-08-21T09:43:01;21.80;99.90
51567;DHT22;37657;53.182;5.638;2022-08-21T09:45:27;21.80;99.90
51567;DHT22;37657;53.182;5.638;2022-08-21T09:47:53;21.80;99.90
51567;DHT22;37657;53.182;5.638;2022-08-21T09:50:26;21.60;99.90
51567;DHT22;37657;53.182;5.638;2022-08-21T09:52:56;21.50;99.90
51567;DHT22;37657;53.182;5.638;2022-08-21T09:58:15;21.70;99.90
51567;DHT22;37657;53.182;5.638;2022-08-21T10:00:41;22.10;99.90
51567;DHT22;37657;53.182;5.638;2022-08-21T10:03:28;22.30;99.90
51567;DHT22;37657;53.182;5.638;2022-08-21T10:08:22;22.40;99.90
51567;DHT22;37657;53.182;5.638;2022-08-21T10:10:52;22.50;99.90
51567;DHT22;37657;53.182;5.638;2022-08-21T10:18:25;22.50;99.90
51567;DHT22;37657;53.182;5.638;2022-08-21T10:36:35;22.70;99.90
51567;DHT22;37657;53.182;5.638;2022-08-21T10:39:17;22.50;99.90
51567;DHT22;37657;53.182;5.638;2022-08-21T10:44:39;22.60;99.90
51567;DHT22;37657;53.182;5.638;2022-08-21T10:47:09;22.60;99.90
51567;DHT22;37657;53.182;5.638;2022-08-21T10:49:39;22.70;99.90
51567;DHT22;37657;53.182;5.638;2022-08-21T10:54:39;23.00;99.90
51567;DHT22;37657;53.182;5.638;2022-08-21T10:57:14;23.10;99.90
51567;DHT22;37657;53.182;5.638;2022-08-21T10:59:48;23.10;99.90
51567;DHT22;37657;53.182;5.638;2022-08-21T11:09:46;23.30;99.90
51567;DHT22;37657;53.182;5.638;2022-08-21T11:14:56;23.30;99.90
51567;DHT22;37657;53.182;5.638;2022-08-21T11:17:24;23.50;99.90
51567;DHT22;37657;53.182;5.638;2022-08-21T11:19:54;23.50;99.90
51567;DHT22;37657;53.182;5.638;2022-08-21T11:22:25;23.60;99.90
51567;DHT22;37657;53.182;5.638;2022-08-21T11:24:57;23.70;99.90
51567;DHT22;37657;53.182;5.638;2022-08-21T11:27:32;23.60;99.90
51567;DHT22;37657;53.182;5.638;2022-08-21T11:29:59;23.60;99.90
51567;DHT22;37657;53.182;5.638;2022-08-21T11:32:49;23.50;99.90
51567;DHT22;37657;53.182;5.638;2022-08-21T11:37:45;23.60;99.90
51567;DHT22;37657;53.182;5.638;2022-08-21T11:42:49;23.70;99.90
51567;DHT22;37657;53.182;5.638;2022-08-21T11:50:28;23.60;99.90
51567;DHT22;37657;53.182;5.638;2022-08-21T11:55:29;23.50;99.90
51567;DHT22;37657;53.182;5.638;2022-08-21T12:01:03;23.60;99.90
51567;DHT22;37657;53.182;5.638;2022-08-21T12:03:34;23.60;99.90
51567;DHT22;37657;53.182;5.638;2022-08-21T12:06:01;23.60;99.90
51567;DHT22;37657;53.182;5.638;2022-08-21T12:08:37;23.60;99.90
51567;DHT22;37657;53.182;5.638;2022-08-21T12:11:20;23.60;99.90
51567;DHT22;37657;53.182;5.638;2022-08-21T12:13:56;23.60;99.90
51567;DHT22;37657;53.182;5.638;2022-08-21T12:16:32;23.60;99.90
51567;DHT22;37657;53.182;5.638;2022-08-21T12:19:02;23.60;99.90
51567;DHT22;37657;53.182;5.638;2022-08-21T12:21:28;23.60;99.90
51567;DHT22;37657;53.182;5.638;2022-08-21T12:24:01;23.60;99.90
51567;DHT22;37657;53.182;5.638;2022-08-21T12:26:28;23.60;99.90
51567;DHT22;37657;53.182;5.638;2022-08-21T12:29:04;23.50;99.90
51567;DHT22;37657;53.182;5.638;2022-08-21T12:31:30;23.50;99.90
51567;DHT22;37657;53.182;5.638;2022-08-21T12:33:58;23.40;99.90
51567;DHT22;37657;53.182;5.638;2022-08-21T12:36:26;23.40;99.90
51567;DHT22;37657;53.182;5.638;2022-08-21T12:38:57;23.60;99.90
51567;DHT22;37657;53.182;5.638;2022-08-21T12:41:30;23.60;99.90
51567;DHT22;37657;53.182;5.638;2022-08-21T12:46:56;23.40;99.90
51567;DHT22;37657;53.182;5.638;2022-08-21T12:49:27;23.30;99.90
51567;DHT22;37657;53.182;5.638;2022-08-21T12:52:07;23.40;99.90
51567;DHT22;37657;53.182;5.638;2022-08-21T12:54:38;23.30;99.90
51567;DHT22;37657;53.182;5.638;2022-08-21T12:57:05;23.00;99.90
51567;DHT22;37657;53.182;5.638;2022-08-21T12:59:31;22.80;99.90
51567;DHT22;37657;53.182;5.638;2022-08-21T13:01:58;22.70;99.90
51567;DHT22;37657;53.182;5.638;2022-08-21T13:06:56;22.50;99.90
51567;DHT22;37657;53.182;5.638;2022-08-21T13:09:25;22.50;99.90
51567;DHT22;37657;53.182;5.638;2022-08-21T13:11:51;22.50;99.90
51567;DHT22;37657;53.182;5.638;2022-08-21T13:14:18;22.60;99.90
51567;DHT22;37657;53.182;5.638;2022-08-21T13:16:46;22.70;99.90
51567;DHT22;37657;53.182;5.638;2022-08-21T13:19:15;22.60;99.90
51567;DHT22;37657;53.182;5.638;2022-08-21T13:21:42;22.60;99.90
51567;DHT22;37657;53.182;5.638;2022-08-21T13:24:10;22.60;99.90
51567;DHT22;37657;53.182;5.638;2022-08-21T13:26:35;22.60;99.90
51567;DHT22;37657;53.182;5.638;2022-08-21T13:29:11;22.70;99.90
51567;DHT22;37657;53.182;5.638;2022-08-21T13:31:37;22.80;99.90
51567;DHT22;37657;53.182;5.638;2022-08-21T13:34:04;22.90;99.90
51567;DHT22;37657;53.182;5.638;2022-08-21T13:36:31;23.00;99.90
51567;DHT22;37657;53.182;5.638;2022-08-21T13:38:57;23.00;99.90
51567;DHT22;37657;53.182;5.638;2022-08-21T13:41:31;22.90;99.90
51567;DHT22;37657;53.182;5.638;2022-08-21T13:43:58;22.80;99.90
51567;DHT22;37657;53.182;5.638;2022-08-21T13:46:24;22.80;99.90
51567;DHT22;37657;53.182;5.638;2022-08-21T13:48:52;22.90;99.90
51567;DHT22;37657;53.182;5.638;2022-08-21T13:51:18;23.00;99.90
51567;DHT22;37657;53.182;5.638;2022-08-21T13:53:47;22.80;99.90
51567;DHT22;37657;53.182;5.638;2022-08-21T13:56:27;22.80;99.90
51567;DHT22;37657;53.182;5.638;2022-08-21T13:58:53;22.70;99.90
51567;DHT22;37657;53.182;5.638;2022-08-21T14:03:45;22.50;99.90
51567;DHT22;37657;53.182;5.638;2022-08-21T14:06:12;22.50;99.90
51567;DHT22;37657;53.182;5.638;2022-08-21T14:08:39;22.40;99.90
51567;DHT22;37657;53.182;5.638;2022-08-21T14:11:09;22.30;99.90
51567;DHT22;37657;53.182;5.638;2022-08-21T14:13:37;22.20;99.90
51567;DHT22;37657;53.182;5.638;2022-08-21T14:16:10;22.10;99.90
51567;DHT22;37657;53.182;5.638;2022-08-21T14:18:46;22.00;99.90
51567;DHT22;37657;53.182;5.638;2022-08-21T14:21:12;21.90;99.90
51567;DHT22;37657;53.182;5.638;2022-08-21T14:23:38;21.90;99.90
51567;DHT22;37657;53.182;5.638;2022-08-21T14:26:04;21.80;99.90
51567;DHT22;37657;53.182;5.638;2022-08-21T14:28:37;21.80;99.90
51567;DHT22;37657;53.182;5.638;2022-08-21T14:31:18;21.90;99.90
51567;DHT22;37657;53.182;5.638;2022-08-21T14:33:44;22.00;99.90
51567;DHT22;37657;53.182;5.638;2022-08-21T14:36:10;22.00;99.90
51567;DHT22;37657;53.182;5.638;2022-08-21T14:38:36;21.90;99.90
51567;DHT22;37657;53.182;5.638;2022-08-21T14:41:06;21.90;99.90
51567;DHT22;37657;53.182;5.638;2022-08-21T14:43:33;21.90;99.90
51567;DHT22;37657;53.182;5.638;2022-08-21T14:45:58;22.00;99.90
51567;DHT22;37657;53.182;5.638;2022-08-21T14:48:25;21.90;99.90
51567;DHT22;37657;53.182;5.638;2022-08-21T14:50:51;22.00;99.90
51567;DHT22;37657;53.182;5.638;2022-08-21T14:53:17;22.00;99.90
51567;DHT22;37657;53.182;5.638;2022-08-21T14:55:42;21.90;99.90
51567;DHT22;37657;53.182;5.638;2022-08-21T14:58:26;21.90;99.90
51567;DHT22;37657;53.182;5.638;2022-08-21T15:00:52;21.90;99.90
51567;DHT22;37657;53.182;5.638;2022-08-21T15:03:19;21.80;99.90
51567;DHT22;37657;53.182;5.638;2022-08-21T15:05:44;21.80;99.90
51567;DHT22;37657;53.182;5.638;2022-08-21T15:08:10;21.70;99.90
51567;DHT22;37657;53.182;5.638;2022-08-21T15:10:35;21.60;99.90
51567;DHT22;37657;53.182;5.638;2022-08-21T15:13:01;21.50;99.90
51567;DHT22;37657;53.182;5.638;2022-08-21T15:15:27;21.40;99.90
51567;DHT22;37657;53.182;5.638;2022-08-21T15:17:53;21.50;99.90
51567;DHT22;37657;53.182;5.638;2022-08-21T15:20:18;21.30;99.90
51567;DHT22;37657;53.182;5.638;2022-08-21T15:22:44;21.40;99.90
51567;DHT22;37657;53.182;5.638;2022-08-21T15:25:09;21.40;99.90
51567;DHT22;37657;53.182;5.638;2022-08-21T15:27:35;21.40;99.90
51567;DHT22;37657;53.182;5.638;2022-08-21T15:30:01;21.40;99.90
51567;DHT22;37657;53.182;5.638;2022-08-21T15:32:27;21.40;99.90
51567;DHT22;37657;53.182;5.638;2022-08-21T15:34:54;21.30;99.90
51567;DHT22;37657;53.182;5.638;2022-08-21T15:37:20;21.30;99.90
51567;DHT22;37657;53.182;5.638;2022-08-21T15:39:46;21.30;99.90
51567;DHT22;37657;53.182;5.638;2022-08-21T15:42:11;21.20;99.90
51567;DHT22;37657;53.182;5.638;2022-08-21T15:44:38;21.20;99.90
51567;DHT22;37657;53.182;5.638;2022-08-21T15:47:04;21.30;99.90
51567;DHT22;37657;53.182;5.638;2022-08-21T15:49:31;21.30;99.90
51567;DHT22;37657;53.182;5.638;2022-08-21T15:51:57;21.40;99.90
51567;DHT22;37657;53.182;5.638;2022-08-21T15:54:22;21.30;99.90
51567;DHT22;37657;53.182;5.638;2022-08-21T15:56:48;21.20;99.90
51567;DHT22;37657;53.182;5.638;2022-08-21T15:59:17;21.20;99.90
51567;DHT22;37657;53.182;5.638;2022-08-21T16:01:43;21.10;99.90
51567;DHT22;37657;53.182;5.638;2022-08-21T16:04:09;21.10;99.90
51567;DHT22;37657;53.182;5.638;2022-08-21T16:06:35;21.10;99.90
51567;DHT22;37657;53.182;5.638;2022-08-21T16:09:01;21.10;99.90
51567;DHT22;37657;53.182;5.638;2022-08-21T16:11:26;21.10;99.90
51567;DHT22;37657;53.182;5.638;2022-08-21T16:13:52;21.00;99.90
51567;DHT22;37657;53.182;5.638;2022-08-21T16:16:18;20.90;99.90
51567;DHT22;37657;53.182;5.638;2022-08-21T16:18:45;20.90;99.90
51567;DHT22;37657;53.182;5.638;2022-08-21T16:21:11;20.90;99.90
51567;DHT22;37657;53.182;5.638;2022-08-21T16:23:37;20.90;99.90
51567;DHT22;37657;53.182;5.638;2022-08-21T16:26:03;20.90;99.90
51567;DHT22;37657;53.182;5.638;2022-08-21T16:28:29;20.90;99.90
51567;DHT22;37657;53.182;5.638;2022-08-21T16:30:55;21.00;99.90
51567;DHT22;37657;53.182;5.638;2022-08-21T16:33:26;21.00;99.90
51567;DHT22;37657;53.182;5.638;2022-08-21T16:35:53;20.90;99.90
51567;DHT22;37657;53.182;5.638;2022-08-21T16:38:18;21.00;99.90
51567;DHT22;37657;53.182;5.638;2022-08-21T16:40:44;21.00;99.90
51567;DHT22;37657;53.182;5.638;2022-08-21T16:43:10;21.00;99.90
51567;DHT22;37657;53.182;5.638;2022-08-21T16:45:35;20.90;99.90
51567;DHT22;37657;53.182;5.638;2022-08-21T16:48:01;20.90;99.90